Share

Kumamoto, Japan

6:38 PM JST on April 24, 2014 (GMT +0900)
Kumamoto (RJFT) Elev 643 ft | 32.84 °N, 130.86 °E | Change Station

Current weather conditions updated 38 minutes ago

Partly Cloudy
Partly Cloudy
70 °F
Feels Like 70 °F
N
8
Wind Variable Wind from North
Sunrise 5:37 AM
Sunset 6:52 PM
Moon Waning Crescent

Tomorrow is forecast to be nearly the same temperature as today.

Pressure 30.12 in
Visibility 6.2 miles
Clouds Few 4000 ft
Dew Point 39 °F
Humidity 33%
Rainfall 0.00 in
Snow Depth Not available.
UV 1 out of 16
Pollen Not available.
Air Quality Not available.
Flu Activity Not available.
METAR RJFT 240900Z 01007KT 9999 FEW040 SCT/// 21/04 Q1020

More Conditions Fewer Conditions

Pressure 30.12 in
Visibility 6.2 miles
Clouds Few 4000 ft
Dew Point 39 °F
Humidity 33%
Rainfall 0.00 in
Snow Depth Not available.
UV 1 out of 16
Pollen Not available.
Air Quality Not available.
Flu Activity Not available.
METAR RJFT 240900Z 01007KT 9999 FEW040 SCT/// 21/04 Q1020

More Conditions Fewer Conditions

10-Day Weather Forecast

Almanac

Astronomy

Apr. 24, 2014 Rise Set
Actual Time 5:37 AM JST 6:52 PM JST
Civil Twilight 5:11 AM JST 7:18 PM JST
Nautical Twilight 4:40 AM JST 7:49 PM JST
Astronomical Twilight 4:08 AM JST 8:21 PM JST
Moon 2:06 AM JST 1:44 PM JST
Length of Visible Light 14h 07m
Length of Day
13h 15m
Tomorrow will be 1m 49s longer.
Waning Crescent, 27% of the Moon is Illuminated
Today
Waning Crescent
Apr 29
New
May 6
First Quarter
May 14
Full
May 21
Last Quarter

Yesterday's Extremes

Country Highs Country Lows

Community

  • Stacked
    Stacked
  • clouds approaching Red Sox Nation
    clouds approaching Red Sox Nation
  • Balance
    Balance
  • Nestled In
    Nestled In
  • Stunning Sunrise
    Stunning Sunrise

WunderPhotos

Upload Photos

1,704,575 photos uploaded!

WunderBlogs® & News

Nearby

Snow Depth

Not available.

Coastal Water Temperatures

Place Temperature
No Stations Reporting

Earthquake Activity

City Distance Mag. Time & Date
No recent earthquake activity has been reported nearby.
Minimum magnitude displayed is 2.5.

Nearby Weather Stations

There are no personal weather stations in this area.

What do you think?

We're not finished. Please let us know what you like, what you don't like, and what you are still missing.